Terminal Aerodrome Forecast
Issued by NWS

Home | Current Version | Previous Version | Text Only | Print | Product List | Glossary On
Versions: 1 2 3 4 5 6 7 8 9 10 11 12 13
100
FTUS44 KSJT 232322
TAFBBD
TAF
KBBD 232322Z 2400/2424 VRB05KT P6SM VCTS BKN050CB
     FM240300 VRB06KT P6SM BKN050
     FM241800 VRB06KT P6SM OVC050 PROB30 2418/2424 P6SM TS BKN050CB
      AMD NOT SKED=

USA.gov is the U.S. government's official web portal to all federal, state and local government web resources and services.